sensor_id;sensor_type;location;lat;lon;timestamp;P1;durP1;ratioP1;P2;durP2;ratioP2
43457;SDS011;29046;54.184;18.680;2022-07-29T00:01:21;10.60;;;3.97;;
43457;SDS011;29046;54.184;18.680;2022-07-29T00:03:54;11.30;;;3.65;;
43457;SDS011;29046;54.184;18.680;2022-07-29T00:06:42;10.27;;;2.92;;
43457;SDS011;29046;54.184;18.680;2022-07-29T00:09:15;11.02;;;3.50;;
43457;SDS011;29046;54.184;18.680;2022-07-29T00:12:10;7.05;;;3.45;;
43457;SDS011;29046;54.184;18.680;2022-07-29T00:15:05;10.48;;;3.42;;
43457;SDS011;29046;54.184;18.680;2022-07-29T00:17:39;7.97;;;3.45;;
43457;SDS011;29046;54.184;18.680;2022-07-29T00:20:27;14.90;;;3.55;;
43457;SDS011;29046;54.184;18.680;2022-07-29T00:23:00;8.90;;;3.40;;
43457;SDS011;29046;54.184;18.680;2022-07-29T00:25:52;9.55;;;3.33;;
43457;SDS011;29046;54.184;18.680;2022-07-29T00:28:26;5.45;;;3.45;;
43457;SDS011;29046;54.184;18.680;2022-07-29T00:31:13;13.48;;;3.30;;
43457;SDS011;29046;54.184;18.680;2022-07-29T00:33:47;11.43;;;3.05;;
43457;SDS011;29046;54.184;18.680;2022-07-29T00:36:34;11.00;;;3.72;;
43457;SDS011;29046;54.184;18.680;2022-07-29T00:39:08;10.80;;;3.45;;
43457;SDS011;29046;54.184;18.680;2022-07-29T00:42:03;8.88;;;3.85;;
43457;SDS011;29046;54.184;18.680;2022-07-29T00:44:41;17.55;;;3.92;;
43457;SDS011;29046;54.184;18.680;2022-07-29T00:47:36;8.95;;;3.30;;
43457;SDS011;29046;54.184;18.680;2022-07-29T00:50:10;14.98;;;3.80;;
43457;SDS011;29046;54.184;18.680;2022-07-29T00:52:59;10.40;;;4.30;;
43457;SDS011;29046;54.184;18.680;2022-07-29T00:55:34;11.43;;;4.03;;
43457;SDS011;29046;54.184;18.680;2022-07-29T00:58:22;10.32;;;3.83;;
43457;SDS011;29046;54.184;18.680;2022-07-29T01:01:03;8.38;;;4.28;;
43457;SDS011;29046;54.184;18.680;2022-07-29T01:03:57;14.63;;;4.25;;
43457;SDS011;29046;54.184;18.680;2022-07-29T01:06:31;12.85;;;3.53;;
43457;SDS011;29046;54.184;18.680;2022-07-29T01:09:18;11.20;;;3.95;;
43457;SDS011;29046;54.184;18.680;2022-07-29T01:12:13;12.80;;;4.38;;
43457;SDS011;29046;54.184;18.680;2022-07-29T01:15:09;12.20;;;4.22;;
43457;SDS011;29046;54.184;18.680;2022-07-29T01:18:11;9.35;;;3.92;;
43457;SDS011;29046;54.184;18.680;2022-07-29T01:21:08;9.57;;;4.25;;
43457;SDS011;29046;54.184;18.680;2022-07-29T01:29:57;14.35;;;4.30;;
43457;SDS011;29046;54.184;18.680;2022-07-29T01:32:41;12.52;;;4.53;;
43457;SDS011;29046;54.184;18.680;2022-07-29T01:35:39;9.80;;;4.10;;
43457;SDS011;29046;54.184;18.680;2022-07-29T01:38:21;10.35;;;3.55;;
43457;SDS011;29046;54.184;18.680;2022-07-29T01:41:11;11.45;;;3.78;;
43457;SDS011;29046;54.184;18.680;2022-07-29T01:43:54;15.02;;;5.45;;
43457;SDS011;29046;54.184;18.680;2022-07-29T01:46:36;17.20;;;4.97;;
43457;SDS011;29046;54.184;18.680;2022-07-29T01:49:22;9.20;;;3.85;;
43457;SDS011;29046;54.184;18.680;2022-07-29T01:52:05;10.05;;;4.43;;
43457;SDS011;29046;54.184;18.680;2022-07-29T01:54:53;19.90;;;5.40;;
43457;SDS011;29046;54.184;18.680;2022-07-29T01:57:35;9.07;;;3.95;;
43457;SDS011;29046;54.184;18.680;2022-07-29T02:00:18;12.65;;;4.13;;
43457;SDS011;29046;54.184;18.680;2022-07-29T02:03:07;17.58;;;4.80;;
43457;SDS011;29046;54.184;18.680;2022-07-29T02:05:49;12.63;;;4.32;;
43457;SDS011;29046;54.184;18.680;2022-07-29T02:08:38;7.28;;;3.42;;
43457;SDS011;29046;54.184;18.680;2022-07-29T02:11:12;13.30;;;4.30;;
43457;SDS011;29046;54.184;18.680;2022-07-29T02:13:59;9.32;;;3.85;;
43457;SDS011;29046;54.184;18.680;2022-07-29T02:16:33;9.32;;;4.10;;
43457;SDS011;29046;54.184;18.680;2022-07-29T02:19:24;11.43;;;4.30;;
43457;SDS011;29046;54.184;18.680;2022-07-29T02:21:58;10.13;;;4.15;;
43457;SDS011;29046;54.184;18.680;2022-07-29T02:24:54;11.27;;;4.35;;
43457;SDS011;29046;54.184;18.680;2022-07-29T02:27:29;12.07;;;4.75;;
43457;SDS011;29046;54.184;18.680;2022-07-29T02:30:17;7.72;;;3.92;;
43457;SDS011;29046;54.184;18.680;2022-07-29T02:32:52;12.15;;;4.05;;
43457;SDS011;29046;54.184;18.680;2022-07-29T02:35:47;8.52;;;4.43;;
43457;SDS011;29046;54.184;18.680;2022-07-29T02:38:21;6.60;;;4.50;;
43457;SDS011;29046;54.184;18.680;2022-07-29T02:41:30;14.30;;;4.47;;
43457;SDS011;29046;54.184;18.680;2022-07-29T02:44:25;10.90;;;4.55;;
43457;SDS011;29046;54.184;18.680;2022-07-29T02:47:34;13.70;;;4.93;;
43457;SDS011;29046;54.184;18.680;2022-07-29T02:50:32;13.23;;;4.05;;
43457;SDS011;29046;54.184;18.680;2022-07-29T02:53:09;11.15;;;4.32;;
43457;SDS011;29046;54.184;18.680;2022-07-29T02:56:07;18.02;;;5.15;;
43457;SDS011;29046;54.184;18.680;2022-07-29T02:58:53;8.82;;;4.72;;
43457;SDS011;29046;54.184;18.680;2022-07-29T03:01:49;11.90;;;4.25;;
43457;SDS011;29046;54.184;18.680;2022-07-29T03:04:44;7.88;;;3.95;;
43457;SDS011;29046;54.184;18.680;2022-07-29T03:07:19;13.32;;;4.60;;
43457;SDS011;29046;54.184;18.680;2022-07-29T03:10:14;12.25;;;4.50;;
43457;SDS011;29046;54.184;18.680;2022-07-29T03:13:09;10.63;;;4.00;;
43457;SDS011;29046;54.184;18.680;2022-07-29T03:15:44;8.75;;;4.43;;
43457;SDS011;29046;54.184;18.680;2022-07-29T03:18:39;12.40;;;4.53;;
43457;SDS011;29046;54.184;18.680;2022-07-29T03:21:14;12.45;;;4.00;;
43457;SDS011;29046;54.184;18.680;2022-07-29T03:24:02;12.98;;;4.63;;
43457;SDS011;29046;54.184;18.680;2022-07-29T03:26:36;16.55;;;4.15;;
43457;SDS011;29046;54.184;18.680;2022-07-29T03:29:31;13.10;;;4.43;;
43457;SDS011;29046;54.184;18.680;2022-07-29T03:32:29;9.32;;;4.53;;
43457;SDS011;29046;54.184;18.680;2022-07-29T03:35:09;11.10;;;4.47;;
43457;SDS011;29046;54.184;18.680;2022-07-29T03:37:50;8.98;;;4.13;;
43457;SDS011;29046;54.184;18.680;2022-07-29T03:40:34;12.90;;;4.60;;
43457;SDS011;29046;54.184;18.680;2022-07-29T03:43:33;12.40;;;3.65;;
43457;SDS011;29046;54.184;18.680;2022-07-29T03:46:15;8.82;;;4.45;;
43457;SDS011;29046;54.184;18.680;2022-07-29T03:49:03;10.98;;;4.40;;
43457;SDS011;29046;54.184;18.680;2022-07-29T03:51:37;8.90;;;3.85;;
43457;SDS011;29046;54.184;18.680;2022-07-29T03:54:32;10.32;;;4.45;;
43457;SDS011;29046;54.184;18.680;2022-07-29T03:57:06;10.10;;;3.97;;
43457;SDS011;29046;54.184;18.680;2022-07-29T04:00:03;9.60;;;4.85;;
43457;SDS011;29046;54.184;18.680;2022-07-29T04:02:58;23.10;;;5.22;;
43457;SDS011;29046;54.184;18.680;2022-07-29T04:05:37;15.35;;;5.00;;
43457;SDS011;29046;54.184;18.680;2022-07-29T04:08:32;16.15;;;6.70;;
43457;SDS011;29046;54.184;18.680;2022-07-29T04:11:27;15.52;;;5.82;;
43457;SDS011;29046;54.184;18.680;2022-07-29T04:14:27;17.92;;;6.13;;
43457;SDS011;29046;54.184;18.680;2022-07-29T04:17:15;16.85;;;6.28;;
43457;SDS011;29046;54.184;18.680;2022-07-29T04:19:48;14.57;;;4.82;;
43457;SDS011;29046;54.184;18.680;2022-07-29T04:22:35;15.85;;;4.82;;
43457;SDS011;29046;54.184;18.680;2022-07-29T04:25:08;12.85;;;4.55;;
43457;SDS011;29046;54.184;18.680;2022-07-29T04:27:56;13.85;;;4.78;;
43457;SDS011;29046;54.184;18.680;2022-07-29T04:30:36;10.23;;;4.55;;
43457;SDS011;29046;54.184;18.680;2022-07-29T04:33:25;14.23;;;4.00;;
43457;SDS011;29046;54.184;18.680;2022-07-29T04:35:58;9.38;;;3.35;;
43457;SDS011;29046;54.184;18.680;2022-07-29T04:39:08;14.38;;;4.95;;
43457;SDS011;29046;54.184;18.680;2022-07-29T04:41:48;9.40;;;3.13;;
43457;SDS011;29046;54.184;18.680;2022-07-29T04:44:37;9.38;;;2.67;;
43457;SDS011;29046;54.184;18.680;2022-07-29T04:47:10;5.10;;;2.60;;
43457;SDS011;29046;54.184;18.680;2022-07-29T04:49:58;9.05;;;3.40;;
43457;SDS011;29046;54.184;18.680;2022-07-29T04:52:31;5.13;;;2.33;;
43457;SDS011;29046;54.184;18.680;2022-07-29T04:55:26;6.90;;;3.00;;
43457;SDS011;29046;54.184;18.680;2022-07-29T04:57:59;7.15;;;2.92;;
43457;SDS011;29046;54.184;18.680;2022-07-29T05:00:47;7.80;;;3.40;;
43457;SDS011;29046;54.184;18.680;2022-07-29T05:03:20;6.00;;;2.95;;
43457;SDS011;29046;54.184;18.680;2022-07-29T05:06:15;5.05;;;2.95;;
43457;SDS011;29046;54.184;18.680;2022-07-29T05:09:09;8.43;;;2.78;;
43457;SDS011;29046;54.184;18.680;2022-07-29T05:11:43;9.05;;;2.80;;
43457;SDS011;29046;54.184;18.680;2022-07-29T05:14:37;11.38;;;2.75;;
43457;SDS011;29046;54.184;18.680;2022-07-29T05:17:31;9.02;;;2.70;;
43457;SDS011;29046;54.184;18.680;2022-07-29T05:20:11;8.07;;;2.55;;
43457;SDS011;29046;54.184;18.680;2022-07-29T05:22:58;7.00;;;2.55;;
43457;SDS011;29046;54.184;18.680;2022-07-29T05:25:33;5.65;;;2.00;;
43457;SDS011;29046;54.184;18.680;2022-07-29T05:30:56;7.25;;;2.30;;
43457;SDS011;29046;54.184;18.680;2022-07-29T05:33:43;9.02;;;2.50;;
43457;SDS011;29046;54.184;18.680;2022-07-29T05:36:16;8.52;;;2.55;;
43457;SDS011;29046;54.184;18.680;2022-07-29T05:39:04;4.43;;;2.10;;
43457;SDS011;29046;54.184;18.680;2022-07-29T05:41:44;3.20;;;2.10;;
43457;SDS011;29046;54.184;18.680;2022-07-29T05:44:26;2.95;;;1.88;;
43457;SDS011;29046;54.184;18.680;2022-07-29T05:47:06;6.75;;;2.40;;
43457;SDS011;29046;54.184;18.680;2022-07-29T05:49:53;3.58;;;1.70;;
43457;SDS011;29046;54.184;18.680;2022-07-29T05:52:33;4.15;;;1.98;;
43457;SDS011;29046;54.184;18.680;2022-07-29T05:55:14;5.15;;;1.83;;
43457;SDS011;29046;54.184;18.680;2022-07-29T05:57:54;8.02;;;2.47;;
43457;SDS011;29046;54.184;18.680;2022-07-29T06:00:35;2.92;;;1.70;;
43457;SDS011;29046;54.184;18.680;2022-07-29T06:03:15;3.88;;;2.00;;
43457;SDS011;29046;54.184;18.680;2022-07-29T06:05:56;8.25;;;1.50;;
43457;SDS011;29046;54.184;18.680;2022-07-29T06:08:36;5.22;;;1.77;;
43457;SDS011;29046;54.184;18.680;2022-07-29T06:11:18;2.17;;;1.80;;
43457;SDS011;29046;54.184;18.680;2022-07-29T06:13:58;4.10;;;1.80;;
43457;SDS011;29046;54.184;18.680;2022-07-29T06:16:40;2.88;;;1.67;;
43457;SDS011;29046;54.184;18.680;2022-07-29T06:19:21;3.33;;;1.98;;
43457;SDS011;29046;54.184;18.680;2022-07-29T06:22:02;4.25;;;2.08;;
43457;SDS011;29046;54.184;18.680;2022-07-29T06:24:43;5.53;;;1.92;;
43457;SDS011;29046;54.184;18.680;2022-07-29T06:27:24;2.22;;;1.70;;
43457;SDS011;29046;54.184;18.680;2022-07-29T06:30:04;2.05;;;1.83;;
43457;SDS011;29046;54.184;18.680;2022-07-29T06:32:52;3.47;;;1.63;;
43457;SDS011;29046;54.184;18.680;2022-07-29T06:35:25;2.00;;;1.77;;
43457;SDS011;29046;54.184;18.680;2022-07-29T06:38:23;3.83;;;2.15;;
43457;SDS011;29046;54.184;18.680;2022-07-29T06:41:12;6.00;;;1.80;;
43457;SDS011;29046;54.184;18.680;2022-07-29T06:44:07;2.67;;;1.90;;
43457;SDS011;29046;54.184;18.680;2022-07-29T06:47:01;2.75;;;1.70;;
43457;SDS011;29046;54.184;18.680;2022-07-29T06:49:36;3.95;;;1.50;;
43457;SDS011;29046;54.184;18.680;2022-07-29T06:52:30;1.55;;;1.45;;
43457;SDS011;29046;54.184;18.680;2022-07-29T06:55:04;1.70;;;1.38;;
43457;SDS011;29046;54.184;18.680;2022-07-29T07:00:37;2.30;;;1.30;;
43457;SDS011;29046;54.184;18.680;2022-07-29T07:03:25;2.60;;;1.48;;
43457;SDS011;29046;54.184;18.680;2022-07-29T07:06:06;3.00;;;1.30;;
43457;SDS011;29046;54.184;18.680;2022-07-29T07:08:54;3.22;;;1.48;;
43457;SDS011;29046;54.184;18.680;2022-07-29T07:11:34;3.25;;;1.45;;
43457;SDS011;29046;54.184;18.680;2022-07-29T07:14:15;3.10;;;1.38;;
43457;SDS011;29046;54.184;18.680;2022-07-29T07:16:55;4.32;;;1.33;;
43457;SDS011;29046;54.184;18.680;2022-07-29T07:19:43;1.75;;;1.10;;
43457;SDS011;29046;54.184;18.680;2022-07-29T07:22:17;2.13;;;1.17;;
43457;SDS011;29046;54.184;18.680;2022-07-29T07:25:10;1.27;;;1.15;;
43457;SDS011;29046;54.184;18.680;2022-07-29T07:27:45;5.53;;;1.40;;
43457;SDS011;29046;54.184;18.680;2022-07-29T07:30:32;1.40;;;1.30;;
43457;SDS011;29046;54.184;18.680;2022-07-29T07:33:13;1.70;;;1.40;;
43457;SDS011;29046;54.184;18.680;2022-07-29T07:36:00;1.30;;;1.20;;
43457;SDS011;29046;54.184;18.680;2022-07-29T07:38:33;1.40;;;1.30;;
43457;SDS011;29046;54.184;18.680;2022-07-29T07:41:20;1.83;;;1.60;;
43457;SDS011;29046;54.184;18.680;2022-07-29T07:43:54;1.50;;;1.40;;
43457;SDS011;29046;54.184;18.680;2022-07-29T07:46:48;3.40;;;2.00;;
43457;SDS011;29046;54.184;18.680;2022-07-29T07:49:22;1.50;;;1.40;;
43457;SDS011;29046;54.184;18.680;2022-07-29T07:52:09;6.47;;;1.75;;
43457;SDS011;29046;54.184;18.680;2022-07-29T07:54:43;2.15;;;1.50;;
43457;SDS011;29046;54.184;18.680;2022-07-29T07:57:30;2.67;;;1.70;;
43457;SDS011;29046;54.184;18.680;2022-07-29T08:00:11;1.70;;;1.60;;
43457;SDS011;29046;54.184;18.680;2022-07-29T08:02:55;1.90;;;1.58;;
43457;SDS011;29046;54.184;18.680;2022-07-29T08:05:48;2.17;;;1.70;;
43457;SDS011;29046;54.184;18.680;2022-07-29T08:08:30;1.70;;;1.60;;
43457;SDS011;29046;54.184;18.680;2022-07-29T08:11:10;1.80;;;1.70;;
43457;SDS011;29046;54.184;18.680;2022-07-29T08:13:59;5.00;;;2.00;;
43457;SDS011;29046;54.184;18.680;2022-07-29T08:16:40;3.45;;;1.80;;
43457;SDS011;29046;54.184;18.680;2022-07-29T08:19:22;1.80;;;1.70;;
43457;SDS011;29046;54.184;18.680;2022-07-29T08:22:02;1.65;;;1.55;;
43457;SDS011;29046;54.184;18.680;2022-07-29T08:24:56;5.97;;;1.65;;
43457;SDS011;29046;54.184;18.680;2022-07-29T08:27:30;3.10;;;1.60;;
43457;SDS011;29046;54.184;18.680;2022-07-29T08:30:24;3.42;;;1.88;;
43457;SDS011;29046;54.184;18.680;2022-07-29T08:33:05;2.55;;;1.60;;
43457;SDS011;29046;54.184;18.680;2022-07-29T08:35:45;4.68;;;1.80;;
43457;SDS011;29046;54.184;18.680;2022-07-29T08:38:25;1.92;;;1.70;;
43457;SDS011;29046;54.184;18.680;2022-07-29T08:41:13;1.90;;;1.80;;
43457;SDS011;29046;54.184;18.680;2022-07-29T08:43:53;2.63;;;1.90;;
43457;SDS011;29046;54.184;18.680;2022-07-29T08:46:33;2.58;;;1.67;;
43457;SDS011;29046;54.184;18.680;2022-07-29T08:49:17;1.88;;;1.70;;
43457;SDS011;29046;54.184;18.680;2022-07-29T08:51:57;2.35;;;1.50;;
43457;SDS011;29046;54.184;18.680;2022-07-29T08:54:40;2.90;;;1.60;;
43457;SDS011;29046;54.184;18.680;2022-07-29T08:57:23;3.85;;;1.58;;
43457;SDS011;29046;54.184;18.680;2022-07-29T09:00:06;2.45;;;1.67;;
43457;SDS011;29046;54.184;18.680;2022-07-29T09:02:57;1.33;;;1.23;;
43457;SDS011;29046;54.184;18.680;2022-07-29T09:05:44;1.50;;;1.40;;
43457;SDS011;29046;54.184;18.680;2022-07-29T09:08:25;4.30;;;1.50;;
43457;SDS011;29046;54.184;18.680;2022-07-29T09:11:05;1.30;;;1.23;;
43457;SDS011;29046;54.184;18.680;2022-07-29T09:13:53;1.40;;;1.30;;
43457;SDS011;29046;54.184;18.680;2022-07-29T09:16:43;1.40;;;1.30;;
43457;SDS011;29046;54.184;18.680;2022-07-29T09:19:34;4.40;;;1.60;;
43457;SDS011;29046;54.184;18.680;2022-07-29T09:22:27;1.42;;;1.30;;
43457;SDS011;29046;54.184;18.680;2022-07-29T09:25:13;1.40;;;1.30;;
43457;SDS011;29046;54.184;18.680;2022-07-29T09:27:53;1.60;;;1.50;;
43457;SDS011;29046;54.184;18.680;2022-07-29T09:30:33;1.40;;;1.30;;
43457;SDS011;29046;54.184;18.680;2022-07-29T09:33:14;1.50;;;1.40;;
43457;SDS011;29046;54.184;18.680;2022-07-29T09:36:07;1.48;;;1.38;;
43457;SDS011;29046;54.184;18.680;2022-07-29T09:38:58;1.40;;;1.30;;
43457;SDS011;29046;54.184;18.680;2022-07-29T09:41:50;1.30;;;1.20;;
43457;SDS011;29046;54.184;18.680;2022-07-29T09:44:41;1.30;;;1.20;;
43457;SDS011;29046;54.184;18.680;2022-07-29T09:47:40;2.58;;;1.20;;
43457;SDS011;29046;54.184;18.680;2022-07-29T09:50:15;1.50;;;1.20;;
43457;SDS011;29046;54.184;18.680;2022-07-29T09:53:12;1.40;;;1.30;;
43457;SDS011;29046;54.184;18.680;2022-07-29T09:56:04;4.13;;;1.30;;
43457;SDS011;29046;54.184;18.680;2022-07-29T09:59:04;1.30;;;1.20;;
43457;SDS011;29046;54.184;18.680;2022-07-29T10:01:39;2.58;;;1.30;;
43457;SDS011;29046;54.184;18.680;2022-07-29T10:04:36;1.27;;;1.15;;
43457;SDS011;29046;54.184;18.680;2022-07-29T10:07:19;1.20;;;1.10;;
43457;SDS011;29046;54.184;18.680;2022-07-29T10:09:59;1.45;;;1.17;;
43457;SDS011;29046;54.184;18.680;2022-07-29T10:12:47;3.35;;;1.30;;
43457;SDS011;29046;54.184;18.680;2022-07-29T10:15:47;1.55;;;1.23;;
43457;SDS011;29046;54.184;18.680;2022-07-29T10:18:30;1.63;;;1.50;;
43457;SDS011;29046;54.184;18.680;2022-07-29T10:21:19;1.35;;;1.25;;
43457;SDS011;29046;54.184;18.680;2022-07-29T10:24:09;1.40;;;1.30;;
43457;SDS011;29046;54.184;18.680;2022-07-29T10:26:49;2.53;;;1.17;;
43457;SDS011;29046;54.184;18.680;2022-07-29T10:29:31;2.28;;;1.20;;
43457;SDS011;29046;54.184;18.680;2022-07-29T10:44:23;1.63;;;1.40;;
43457;SDS011;29046;54.184;18.680;2022-07-29T10:50:00;1.65;;;1.40;;
43457;SDS011;29046;54.184;18.680;2022-07-29T10:52:51;1.77;;;1.30;;
43457;SDS011;29046;54.184;18.680;2022-07-29T10:55:40;1.63;;;1.40;;
43457;SDS011;29046;54.184;18.680;2022-07-29T10:58:25;1.80;;;1.50;;
43457;SDS011;29046;54.184;18.680;2022-07-29T11:01:28;3.03;;;1.40;;
43457;SDS011;29046;54.184;18.680;2022-07-29T11:04:10;2.42;;;1.50;;
43457;SDS011;29046;54.184;18.680;2022-07-29T11:09:36;1.60;;;1.45;;
43457;SDS011;29046;54.184;18.680;2022-07-29T11:15:16;2.17;;;1.40;;
43457;SDS011;29046;54.184;18.680;2022-07-29T11:18:04;1.50;;;1.40;;
43457;SDS011;29046;54.184;18.680;2022-07-29T11:20:48;1.95;;;1.30;;
43457;SDS011;29046;54.184;18.680;2022-07-29T11:23:38;1.40;;;1.30;;
43457;SDS011;29046;54.184;18.680;2022-07-29T11:29:20;1.30;;;1.20;;
43457;SDS011;29046;54.184;18.680;2022-07-29T11:32:10;1.02;;;1.02;;
43457;SDS011;29046;54.184;18.680;2022-07-29T11:35:12;1.63;;;1.20;;
43457;SDS011;29046;54.184;18.680;2022-07-29T11:44:16;6.03;;;1.25;;
43457;SDS011;29046;54.184;18.680;2022-07-29T11:46:50;1.45;;;1.20;;
43457;SDS011;29046;54.184;18.680;2022-07-29T11:49:39;3.42;;;1.27;;
43457;SDS011;29046;54.184;18.680;2022-07-29T11:52:41;1.13;;;1.13;;
43457;SDS011;29046;54.184;18.680;2022-07-29T11:55:24;1.30;;;1.20;;
43457;SDS011;29046;54.184;18.680;2022-07-29T11:58:42;1.30;;;1.20;;
43457;SDS011;29046;54.184;18.680;2022-07-29T12:01:16;2.75;;;1.20;;
43457;SDS011;29046;54.184;18.680;2022-07-29T12:06:50;1.00;;;1.00;;
43457;SDS011;29046;54.184;18.680;2022-07-29T12:09:39;2.65;;;1.10;;
43457;SDS011;29046;54.184;18.680;2022-07-29T12:12:20;1.35;;;1.20;;
43457;SDS011;29046;54.184;18.680;2022-07-29T12:17:44;1.40;;;1.30;;
43457;SDS011;29046;54.184;18.680;2022-07-29T12:20:35;1.30;;;1.20;;
43457;SDS011;29046;54.184;18.680;2022-07-29T12:23:08;1.48;;;1.27;;
43457;SDS011;29046;54.184;18.680;2022-07-29T12:26:04;1.60;;;1.50;;
43457;SDS011;29046;54.184;18.680;2022-07-29T12:28:43;1.23;;;1.20;;
43457;SDS011;29046;54.184;18.680;2022-07-29T12:31:34;2.17;;;1.55;;
43457;SDS011;29046;54.184;18.680;2022-07-29T12:34:17;2.42;;;1.60;;
43457;SDS011;29046;54.184;18.680;2022-07-29T12:37:05;2.30;;;1.33;;
43457;SDS011;29046;54.184;18.680;2022-07-29T12:39:49;1.50;;;1.30;;
43457;SDS011;29046;54.184;18.680;2022-07-29T12:42:29;1.30;;;1.20;;
43457;SDS011;29046;54.184;18.680;2022-07-29T12:45:12;1.25;;;1.15;;
43457;SDS011;29046;54.184;18.680;2022-07-29T12:47:59;2.00;;;1.38;;
43457;SDS011;29046;54.184;18.680;2022-07-29T12:50:56;3.08;;;1.40;;
43457;SDS011;29046;54.184;18.680;2022-07-29T12:54:02;2.78;;;1.40;;
43457;SDS011;29046;54.184;18.680;2022-07-29T12:56:43;1.50;;;1.40;;
43457;SDS011;29046;54.184;18.680;2022-07-29T12:59:30;1.05;;;1.05;;
43457;SDS011;29046;54.184;18.680;2022-07-29T13:02:06;2.97;;;1.20;;
43457;SDS011;29046;54.184;18.680;2022-07-29T13:04:57;2.28;;;1.70;;
43457;SDS011;29046;54.184;18.680;2022-07-29T13:07:33;1.35;;;1.20;;
43457;SDS011;29046;54.184;18.680;2022-07-29T13:10:41;3.72;;;1.70;;
43457;SDS011;29046;54.184;18.680;2022-07-29T13:13:22;2.35;;;1.40;;
43457;SDS011;29046;54.184;18.680;2022-07-29T13:16:05;3.10;;;1.20;;
43457;SDS011;29046;54.184;18.680;2022-07-29T13:18:48;1.30;;;1.20;;
43457;SDS011;29046;54.184;18.680;2022-07-29T13:21:28;2.30;;;1.30;;
43457;SDS011;29046;54.184;18.680;2022-07-29T13:24:09;1.35;;;1.23;;
43457;SDS011;29046;54.184;18.680;2022-07-29T13:26:51;1.20;;;1.10;;
43457;SDS011;29046;54.184;18.680;2022-07-29T13:29:32;1.10;;;1.00;;
43457;SDS011;29046;54.184;18.680;2022-07-29T13:32:20;1.63;;;1.17;;
43457;SDS011;29046;54.184;18.680;2022-07-29T13:35:02;2.17;;;1.30;;
43457;SDS011;29046;54.184;18.680;2022-07-29T13:37:49;1.58;;;1.00;;
43457;SDS011;29046;54.184;18.680;2022-07-29T13:40:24;4.43;;;1.30;;
43457;SDS011;29046;54.184;18.680;2022-07-29T13:43:13;4.05;;;1.60;;
43457;SDS011;29046;54.184;18.680;2022-07-29T13:45:54;1.20;;;1.10;;
43457;SDS011;29046;54.184;18.680;2022-07-29T13:48:41;2.30;;;1.10;;
43457;SDS011;29046;54.184;18.680;2022-07-29T13:51:16;1.20;;;1.10;;
43457;SDS011;29046;54.184;18.680;2022-07-29T13:54:03;1.20;;;1.10;;
43457;SDS011;29046;54.184;18.680;2022-07-29T13:56:38;1.35;;;1.08;;
43457;SDS011;29046;54.184;18.680;2022-07-29T13:59:24;1.35;;;1.05;;
43457;SDS011;29046;54.184;18.680;2022-07-29T14:01:59;1.90;;;1.30;;
43457;SDS011;29046;54.184;18.680;2022-07-29T14:04:47;4.13;;;1.30;;
43457;SDS011;29046;54.184;18.680;2022-07-29T14:07:21;1.95;;;1.15;;
43457;SDS011;29046;54.184;18.680;2022-07-29T14:10:08;2.33;;;1.40;;
43457;SDS011;29046;54.184;18.680;2022-07-29T14:12:52;4.82;;;1.30;;
43457;SDS011;29046;54.184;18.680;2022-07-29T14:15:32;1.75;;;1.38;;
43457;SDS011;29046;54.184;18.680;2022-07-29T14:18:13;2.28;;;1.52;;
43457;SDS011;29046;54.184;18.680;2022-07-29T14:20:52;1.50;;;1.40;;
43457;SDS011;29046;54.184;18.680;2022-07-29T14:23:33;1.20;;;1.10;;
43457;SDS011;29046;54.184;18.680;2022-07-29T14:26:21;4.75;;;1.42;;
43457;SDS011;29046;54.184;18.680;2022-07-29T14:28:56;4.15;;;2.10;;
43457;SDS011;29046;54.184;18.680;2022-07-29T14:31:50;2.55;;;1.17;;
43457;SDS011;29046;54.184;18.680;2022-07-29T14:34:44;1.23;;;1.20;;
43457;SDS011;29046;54.184;18.680;2022-07-29T14:37:18;1.40;;;1.20;;
43457;SDS011;29046;54.184;18.680;2022-07-29T14:40:18;4.47;;;1.30;;
43457;SDS011;29046;54.184;18.680;2022-07-29T14:43:13;1.40;;;1.30;;
43457;SDS011;29046;54.184;18.680;2022-07-29T14:45:47;3.10;;;1.40;;
43457;SDS011;29046;54.184;18.680;2022-07-29T14:48:41;2.30;;;1.80;;
43457;SDS011;29046;54.184;18.680;2022-07-29T14:51:15;2.75;;;1.35;;
43457;SDS011;29046;54.184;18.680;2022-07-29T14:54:11;1.65;;;1.20;;
43457;SDS011;29046;54.184;18.680;2022-07-29T14:56:45;7.03;;;1.45;;
43457;SDS011;29046;54.184;18.680;2022-07-29T14:59:36;1.20;;;1.10;;
43457;SDS011;29046;54.184;18.680;2022-07-29T15:02:10;2.10;;;1.20;;
43457;SDS011;29046;54.184;18.680;2022-07-29T15:04:57;1.30;;;1.20;;
43457;SDS011;29046;54.184;18.680;2022-07-29T15:07:31;1.65;;;1.40;;
43457;SDS011;29046;54.184;18.680;2022-07-29T15:10:25;3.17;;;1.73;;
43457;SDS011;29046;54.184;18.680;2022-07-29T15:13:19;6.38;;;1.50;;
43457;SDS011;29046;54.184;18.680;2022-07-29T15:15:53;5.22;;;1.70;;
43457;SDS011;29046;54.184;18.680;2022-07-29T15:18:40;4.57;;;1.50;;
43457;SDS011;29046;54.184;18.680;2022-07-29T15:21:20;1.77;;;1.10;;
43457;SDS011;29046;54.184;18.680;2022-07-29T15:24:01;2.03;;;1.13;;
43457;SDS011;29046;54.184;18.680;2022-07-29T15:26:42;10.38;;;2.90;;
43457;SDS011;29046;54.184;18.680;2022-07-29T15:29:29;1.80;;;1.40;;
43457;SDS011;29046;54.184;18.680;2022-07-29T15:32:03;2.75;;;1.67;;
43457;SDS011;29046;54.184;18.680;2022-07-29T15:34:50;4.65;;;2.03;;
43457;SDS011;29046;54.184;18.680;2022-07-29T15:37:23;4.65;;;1.48;;
43457;SDS011;29046;54.184;18.680;2022-07-29T15:40:21;1.83;;;1.52;;
43457;SDS011;29046;54.184;18.680;2022-07-29T15:43:05;1.67;;;1.23;;
43457;SDS011;29046;54.184;18.680;2022-07-29T15:45:52;21.45;;;7.68;;
43457;SDS011;29046;54.184;18.680;2022-07-29T15:48:45;4.28;;;1.63;;
43457;SDS011;29046;54.184;18.680;2022-07-29T15:51:32;2.40;;;1.30;;
43457;SDS011;29046;54.184;18.680;2022-07-29T15:54:13;2.22;;;1.50;;
43457;SDS011;29046;54.184;18.680;2022-07-29T15:57:02;1.73;;;1.27;;
43457;SDS011;29046;54.184;18.680;2022-07-29T15:59:37;3.50;;;1.60;;
43457;SDS011;29046;54.184;18.680;2022-07-29T16:02:24;1.40;;;1.13;;
43457;SDS011;29046;54.184;18.680;2022-07-29T16:05:11;1.10;;;1.00;;
43457;SDS011;29046;54.184;18.680;2022-07-29T16:08:05;2.03;;;1.20;;
43457;SDS011;29046;54.184;18.680;2022-07-29T16:10:59;11.20;;;4.13;;
43457;SDS011;29046;54.184;18.680;2022-07-29T16:13:33;4.47;;;1.15;;
43457;SDS011;29046;54.184;18.680;2022-07-29T16:16:29;1.98;;;1.40;;
43457;SDS011;29046;54.184;18.680;2022-07-29T16:19:04;5.40;;;1.90;;
43457;SDS011;29046;54.184;18.680;2022-07-29T16:21:51;4.72;;;2.30;;
43457;SDS011;29046;54.184;18.680;2022-07-29T16:24:31;2.22;;;1.50;;
43457;SDS011;29046;54.184;18.680;2022-07-29T16:27:18;2.33;;;1.70;;
43457;SDS011;29046;54.184;18.680;2022-07-29T16:29:57;7.15;;;1.33;;
43457;SDS011;29046;54.184;18.680;2022-07-29T16:32:44;8.63;;;3.95;;
43457;SDS011;29046;54.184;18.680;2022-07-29T16:35:19;11.20;;;3.38;;
43457;SDS011;29046;54.184;18.680;2022-07-29T16:38:11;10.85;;;1.38;;
43457;SDS011;29046;54.184;18.680;2022-07-29T16:40:45;0.82;;;0.82;;
43457;SDS011;29046;54.184;18.680;2022-07-29T16:43:32;5.90;;;1.83;;
43457;SDS011;29046;54.184;18.680;2022-07-29T16:46:14;1.60;;;1.05;;
43457;SDS011;29046;54.184;18.680;2022-07-29T16:49:02;8.13;;;1.70;;
43457;SDS011;29046;54.184;18.680;2022-07-29T16:51:43;2.13;;;1.10;;
43457;SDS011;29046;54.184;18.680;2022-07-29T16:57:03;6.85;;;1.25;;
43457;SDS011;29046;54.184;18.680;2022-07-29T16:59:43;30.08;;;2.40;;
43457;SDS011;29046;54.184;18.680;2022-07-29T17:02:24;0.80;;;0.80;;
43457;SDS011;29046;54.184;18.680;2022-07-29T17:05:11;1.17;;;1.05;;